Terminal Aerodrome Forecast
Issued by NWS

Home | Current Version | Previous Version | Text Only | Print | Product List | Glossary On
Versions: 1 2 3 4 5 6 7 8 9 10 11 12 13 14 15 16 17
326
FTUS46 KSEW 080542
TAFCLM
TAF
KCLM 080542Z 0806/0906 15004KT P6SM SCT200
     FM081800 11010KT P6SM FEW130 OVC200
     FM082300 VRB05KT P6SM SCT060 OVC130
     FM090400 VRB03KT P6SM FEW018 BKN060 OVC100 PROB30 0904/0906
      -SN=

USA.gov is the U.S. government's official web portal to all federal, state and local government web resources and services.